Bloody Springs, Mississippi
Current Conditions -  °F | °C
As of 7:53 PM on Saturday 22 Nov 2014 (Local Time) from KTUP Reporting Station
Clear Clear  
Wind Chill: 57°   Ceiling: Unl
Heat Index: 57°   Visibility: 10mi
Dew Point: 47°   Wind: 3mph
Humidity: 69%   Direction: 160°SSE
Pressure: 30.07"   Gusts: NA
Location:  34.5141°N, 88.2677°W
Report Text: KTUP 230153Z 16003KT 10SM CLR 14/08 A3007 RMK AO2 SLP181 T01390083 $
Loading
Personal Weather Stations






























Interactive Weather Map New forecast layout! Learn more

10-Day Weather Forecast

Advertisements
Track Severe Weather on mobile